createdAt,value
2023-04-08T00:00:42.265Z,9.35
2023-04-08T00:03:44.135Z,9.68
2023-04-08T00:06:46.046Z,9.83
2023-04-08T00:09:47.714Z,9.88
2023-04-08T00:12:52.813Z,9.50
2023-04-08T00:15:54.591Z,10.35
2023-04-08T00:18:56.926Z,8.95
2023-04-08T00:22:00.643Z,8.35
2023-04-08T00:25:03.027Z,8.13
2023-04-08T00:28:07.807Z,8.57
2023-04-08T00:31:09.802Z,9.52
2023-04-08T00:34:11.792Z,8.55
2023-04-08T00:37:13.523Z,7.82
2023-04-08T00:40:15.202Z,10.30
2023-04-08T00:43:21.115Z,7.40
2023-04-08T00:46:22.853Z,8.48
2023-04-08T00:49:24.655Z,8.88
2023-04-08T00:52:26.418Z,7.50
2023-04-08T00:55:28.198Z,8.70
2023-04-08T00:58:34.174Z,9.82
2023-04-08T01:01:59.965Z,9.38
2023-04-08T01:05:23.601Z,7.85
2023-04-08T01:08:25.651Z,7.53
2023-04-08T01:11:28.201Z,7.72
2023-04-08T01:14:34.177Z,8.97
2023-04-08T01:17:36.780Z,8.32
2023-04-08T01:20:38.531Z,8.25
2023-04-08T01:24:00.905Z,8.50
2023-04-08T01:27:02.606Z,7.00
2023-04-08T01:30:08.119Z,7.80
2023-04-08T01:33:13.768Z,7.78
2023-04-08T01:36:15.552Z,8.70
2023-04-08T01:39:17.660Z,8.87
2023-04-08T01:42:19.320Z,7.60
2023-04-08T01:45:24.739Z,6.85
2023-04-08T01:48:26.592Z,7.10
2023-04-08T01:51:28.699Z,8.73
2023-04-08T01:54:30.526Z,7.35
2023-04-08T01:57:33.988Z,8.00
2023-04-08T02:00:38.798Z,7.68
2023-04-08T02:03:42.712Z,7.03
2023-04-08T02:06:44.526Z,9.10
2023-04-08T02:09:46.357Z,7.35
2023-04-08T02:12:48.079Z,6.85
2023-04-08T02:15:58.355Z,7.70
2023-04-08T02:19:14.677Z,7.07
2023-04-08T02:22:37.262Z,7.40
2023-04-08T02:25:39.314Z,8.25
2023-04-08T02:28:45.568Z,8.23
2023-04-08T02:31:51.162Z,5.85
2023-04-08T02:34:52.874Z,8.98
2023-04-08T02:37:54.600Z,7.10
2023-04-08T02:40:56.304Z,6.67
2023-04-08T02:43:58.195Z,6.78
2023-04-08T02:47:04.377Z,7.22
2023-04-08T02:50:06.489Z,8.10
2023-04-08T02:53:09.103Z,7.00
2023-04-08T02:56:11.659Z,7.68
2023-04-08T02:59:13.323Z,7.63
2023-04-08T03:02:15.271Z,8.02
2023-04-08T03:05:17.316Z,7.37
2023-04-08T03:08:18.991Z,7.40
2023-04-08T03:11:21.690Z,6.85
2023-04-08T03:14:26.885Z,7.38
2023-04-08T03:17:28.627Z,7.83
2023-04-08T03:20:30.427Z,6.80
2023-04-08T03:23:32.214Z,8.00
2023-04-08T03:26:34.010Z,7.10
2023-04-08T03:29:39.137Z,6.90
2023-04-08T03:32:41.067Z,6.80
2023-04-08T03:35:42.899Z,7.07
2023-04-08T03:38:44.897Z,6.20
2023-04-08T03:41:46.618Z,6.70
2023-04-08T03:44:52.409Z,6.07
2023-04-08T03:47:54.130Z,6.03
2023-04-08T03:50:58.820Z,6.50
2023-04-08T03:54:00.695Z,7.73
2023-04-08T03:57:02.610Z,8.02
2023-04-08T04:00:04.843Z,7.20
2023-04-08T04:03:10.188Z,6.50
2023-04-08T04:06:11.959Z,7.40
2023-04-08T04:09:15.372Z,7.45
2023-04-08T04:12:17.185Z,6.32
2023-04-08T04:15:23.126Z,7.75
2023-04-08T04:18:24.927Z,7.10
2023-04-08T04:21:27.430Z,7.53
2023-04-08T04:24:29.235Z,5.72
2023-04-08T04:27:31.135Z,7.05
2023-04-08T04:30:37.196Z,6.20
2023-04-08T04:33:41.924Z,5.75
2023-04-08T04:36:43.839Z,7.53
2023-04-08T04:39:45.710Z,6.80
2023-04-08T04:42:47.429Z,7.00
2023-04-08T04:45:52.135Z,6.30
2023-04-08T04:48:53.904Z,6.15
2023-04-08T04:51:55.905Z,6.45
2023-04-08T04:54:58.380Z,6.35
2023-04-08T04:58:00.112Z,6.38
2023-04-08T05:01:02.074Z,7.30
2023-04-08T05:04:03.817Z,7.83
2023-04-08T05:07:05.667Z,6.47
2023-04-08T05:10:07.793Z,6.95
2023-04-08T05:13:09.531Z,5.63
2023-04-08T05:16:15.012Z,6.53
2023-04-08T05:19:16.778Z,5.57
2023-04-08T05:22:22.310Z,6.43
2023-04-08T05:25:24.052Z,7.07
2023-04-08T05:28:25.719Z,7.27
2023-04-08T05:31:30.811Z,6.55
2023-04-08T05:34:32.558Z,6.22
2023-04-08T05:37:38.182Z,6.57
2023-04-08T05:40:39.888Z,5.97
2023-04-08T05:43:41.706Z,5.63
2023-04-08T05:46:46.684Z,6.07
2023-04-08T05:49:50.178Z,6.38
2023-04-08T05:52:52.962Z,6.27
2023-04-08T05:55:54.779Z,7.00
2023-04-08T05:58:56.541Z,4.60
2023-04-08T06:02:02.622Z,6.45
2023-04-08T06:05:08.013Z,6.17
2023-04-08T06:08:09.736Z,6.10
2023-04-08T06:11:11.967Z,7.57
2023-04-08T06:14:13.657Z,6.53
2023-04-08T06:17:19.321Z,6.33
2023-04-08T06:20:21.164Z,5.65
2023-04-08T06:23:23.061Z,6.43
2023-04-08T06:26:24.793Z,5.70
2023-04-08T06:29:26.615Z,6.10
2023-04-08T06:32:32.560Z,5.45
2023-04-08T06:35:34.347Z,5.78
2023-04-08T06:38:36.684Z,6.18
2023-04-08T06:41:38.503Z,5.87
2023-04-08T06:44:40.398Z,6.93
2023-04-08T06:47:49.213Z,6.80
2023-04-08T06:50:53.878Z,5.93
2023-04-08T06:53:55.688Z,6.50
2023-04-08T06:56:57.560Z,6.28
2023-04-08T07:00:00.852Z,6.53
2023-04-08T07:03:06.246Z,6.30
2023-04-08T07:06:07.981Z,6.57
2023-04-08T07:09:09.652Z,6.13
2023-04-08T07:12:11.695Z,5.35
2023-04-08T07:15:13.441Z,6.25
2023-04-08T07:18:19.135Z,6.50
2023-04-08T07:21:20.975Z,6.68
2023-04-08T07:24:22.724Z,6.47
2023-04-08T07:27:24.503Z,6.60
2023-04-08T07:30:26.540Z,7.43
2023-04-08T07:33:28.503Z,6.50
2023-04-08T07:36:33.289Z,6.60
2023-04-08T07:39:37.897Z,6.68
2023-04-08T07:42:43.423Z,6.40
2023-04-08T07:45:45.199Z,6.53
2023-04-08T07:48:47.332Z,7.78
2023-04-08T07:51:51.889Z,6.78
2023-04-08T07:54:53.607Z,8.07
2023-04-08T07:57:55.482Z,6.18
2023-04-08T08:00:57.647Z,7.32
2023-04-08T08:04:02.387Z,8.98
2023-04-08T08:07:04.118Z,7.03
2023-04-08T08:10:10.546Z,8.15
2023-04-08T08:13:15.240Z,8.20
2023-04-08T08:16:17.055Z,7.13
2023-04-08T08:19:22.568Z,7.43
2023-04-08T08:22:24.261Z,8.63
2023-04-08T08:25:29.078Z,7.53
2023-04-08T08:28:30.868Z,6.55
2023-04-08T08:31:32.662Z,8.20
2023-04-08T08:34:34.483Z,8.25
2023-04-08T08:37:36.208Z,7.88
2023-04-08T08:40:37.935Z,8.40
2023-04-08T08:43:39.679Z,8.77
2023-04-08T08:46:44.862Z,8.10
2023-04-08T08:49:50.715Z,7.30
2023-04-08T08:52:52.607Z,7.68
2023-04-08T08:56:13.679Z,8.07
2023-04-08T08:59:18.734Z,7.05
2023-04-08T09:02:28.204Z,8.30
2023-04-08T09:05:34.574Z,8.73
2023-04-08T09:08:37.141Z,7.90
2023-04-08T09:11:40.711Z,7.22
2023-04-08T09:14:42.407Z,7.90
2023-04-08T09:17:44.186Z,6.78
2023-04-08T09:20:55.042Z,8.17
2023-04-08T09:23:56.749Z,7.13
2023-04-08T09:26:58.477Z,6.88
2023-04-08T09:30:16.030Z,8.57
2023-04-08T09:33:17.761Z,8.15
2023-04-08T09:36:22.405Z,8.02
2023-04-08T09:39:24.245Z,6.78
2023-04-08T09:42:26.434Z,7.40
2023-04-08T09:45:28.391Z,7.77
2023-04-08T09:48:33.081Z,7.20
2023-04-08T09:51:40.618Z,6.75
2023-04-08T09:55:02.180Z,8.20
2023-04-08T09:58:17.095Z,7.20
2023-04-08T10:01:27.139Z,7.53
2023-04-08T10:04:29.448Z,7.28
2023-04-08T10:07:35.559Z,7.15
2023-04-08T10:10:39.609Z,6.30
2023-04-08T10:13:41.535Z,7.10
2023-04-08T10:16:43.222Z,6.15
2023-04-08T10:19:44.999Z,5.18
2023-04-08T10:22:48.148Z,5.65
2023-04-08T10:25:49.872Z,5.67
2023-04-08T10:28:51.610Z,6.57
2023-04-08T10:31:53.364Z,5.75
2023-04-08T10:34:55.140Z,5.88
2023-04-08T10:37:57.503Z,6.03
2023-04-08T10:41:01.966Z,6.93
2023-04-08T10:44:04.291Z,6.53
2023-04-08T10:47:06.714Z,7.10
2023-04-08T10:50:18.597Z,6.67
2023-04-08T10:53:32.058Z,5.73
2023-04-08T10:56:34.487Z,4.97
2023-04-08T10:59:37.037Z,5.93
2023-04-08T11:02:38.877Z,5.72
2023-04-08T11:05:41.385Z,4.93
2023-04-08T11:08:44.887Z,5.85
2023-04-08T11:11:50.793Z,5.78
2023-04-08T11:14:52.870Z,6.95
2023-04-08T11:17:55.193Z,7.03
2023-04-08T11:20:58.364Z,6.43
2023-04-08T11:24:01.875Z,7.18
2023-04-08T11:27:09.367Z,6.55
2023-04-08T11:30:11.922Z,6.00
2023-04-08T11:33:13.874Z,6.37
2023-04-08T11:36:18.192Z,6.15
2023-04-08T11:39:23.416Z,6.85
2023-04-08T11:42:35.117Z,6.22
2023-04-08T11:45:40.471Z,5.43
2023-04-08T11:48:42.202Z,5.55
2023-04-08T11:51:57.903Z,5.63
2023-04-08T11:55:03.509Z,4.85
2023-04-08T11:58:07.748Z,5.05
2023-04-08T12:01:09.529Z,5.07
2023-04-08T12:04:11.436Z,5.40
2023-04-08T12:07:13.680Z,5.57
2023-04-08T12:10:18.468Z,4.90
2023-04-08T12:13:20.199Z,5.87
2023-04-08T12:16:21.929Z,4.93
2023-04-08T12:19:23.714Z,4.80
2023-04-08T12:22:25.803Z,5.93
2023-04-08T12:25:27.918Z,4.93
2023-04-08T12:28:29.647Z,4.43
2023-04-08T12:31:32.128Z,5.38
2023-04-08T12:34:34.353Z,4.63
2023-04-08T12:37:36.545Z,4.40
2023-04-08T12:40:41.143Z,4.33
2023-04-08T12:43:42.925Z,4.13
2023-04-08T12:46:44.783Z,4.25
2023-04-08T12:49:49.802Z,4.40
2023-04-08T12:52:51.864Z,4.68
2023-04-08T12:56:01.535Z,4.47
2023-04-08T12:59:03.268Z,5.03
2023-04-08T13:02:05.108Z,4.22
2023-04-08T13:05:08.487Z,4.13
2023-04-08T13:08:12.105Z,4.65
2023-04-08T13:11:13.787Z,4.30
2023-04-08T13:14:15.680Z,4.15
2023-04-08T13:17:17.548Z,4.20
2023-04-08T13:20:19.403Z,3.97
2023-04-08T13:23:22.206Z,3.58
2023-04-08T13:26:28.724Z,4.90
2023-04-08T13:29:30.690Z,3.65
2023-04-08T13:32:35.377Z,3.93
2023-04-08T13:35:37.120Z,3.55
2023-04-08T13:38:38.820Z,4.07
2023-04-08T13:41:44.616Z,2.95
2023-04-08T13:44:46.455Z,3.47
2023-04-08T13:47:51.195Z,3.73
2023-04-08T13:50:52.874Z,3.70
2023-04-08T13:53:54.705Z,3.83
2023-04-08T13:56:59.604Z,3.95
2023-04-08T14:00:01.428Z,3.80
2023-04-08T14:03:03.176Z,3.47
2023-04-08T14:06:05.004Z,3.83
2023-04-08T14:09:07.117Z,3.90
2023-04-08T14:12:08.914Z,4.35
2023-04-08T14:15:10.941Z,3.97
2023-04-08T14:18:13.499Z,3.70
2023-04-08T14:21:16.326Z,4.22
2023-04-08T14:24:18.118Z,3.90
2023-04-08T14:27:23.218Z,3.70
2023-04-08T14:30:24.919Z,3.53
2023-04-08T14:33:27.407Z,3.70
2023-04-08T14:36:29.273Z,3.28
2023-04-08T14:39:31.061Z,3.65
2023-04-08T14:42:36.446Z,3.87
2023-04-08T14:45:38.140Z,3.63
2023-04-08T14:48:39.889Z,3.72
2023-04-08T14:51:41.644Z,3.97
2023-04-08T14:54:45.220Z,4.87
2023-04-08T14:57:50.461Z,3.80
2023-04-08T15:00:52.453Z,3.65
2023-04-08T15:03:54.396Z,3.67
2023-04-08T15:06:56.626Z,3.60
2023-04-08T15:09:58.303Z,3.97
2023-04-08T15:13:03.609Z,4.00
2023-04-08T15:16:13.770Z,3.85
2023-04-08T15:19:15.743Z,3.78
2023-04-08T15:22:17.423Z,3.70
2023-04-08T15:25:19.273Z,3.40
2023-04-08T15:28:24.848Z,3.05
2023-04-08T15:31:27.420Z,4.15
2023-04-08T15:34:29.624Z,4.20
2023-04-08T15:37:31.852Z,3.88
2023-04-08T15:40:34.492Z,4.00
2023-04-08T15:43:40.705Z,3.55
2023-04-08T15:46:45.369Z,3.28
2023-04-08T15:49:48.881Z,3.92
2023-04-08T15:52:50.652Z,3.70
2023-04-08T15:55:52.303Z,3.50
2023-04-08T15:58:57.468Z,3.22
2023-04-08T16:02:03.021Z,3.70
2023-04-08T16:05:05.169Z,3.08
2023-04-08T16:08:07.721Z,4.03
2023-04-08T16:11:09.609Z,3.72
2023-04-08T16:14:15.109Z,4.50
2023-04-08T16:17:17.004Z,4.45
2023-04-08T16:20:20.692Z,3.60
2023-04-08T16:23:22.876Z,3.92
2023-04-08T16:26:24.841Z,3.55
2023-04-08T16:29:27.818Z,3.80
2023-04-08T16:32:29.729Z,3.80
2023-04-08T16:35:31.525Z,3.50
2023-04-08T16:38:33.428Z,3.40
2023-04-08T16:41:35.194Z,4.32
2023-04-08T16:44:36.946Z,4.00
2023-04-08T16:47:39.549Z,3.80
2023-04-08T16:50:41.540Z,4.43
2023-04-08T16:53:43.277Z,4.15
2023-04-08T16:56:45.847Z,3.70
2023-04-08T16:59:49.069Z,3.80
2023-04-08T17:02:54.869Z,4.03
2023-04-08T17:06:14.268Z,4.03
2023-04-08T17:09:16.007Z,4.13
2023-04-08T17:12:18.012Z,3.70
2023-04-08T17:15:20.619Z,2.90
2023-04-08T17:18:26.791Z,3.80
2023-04-08T17:21:28.546Z,3.22
2023-04-08T17:24:30.708Z,3.63
2023-04-08T17:27:32.519Z,3.30
2023-04-08T17:30:34.478Z,3.70
2023-04-08T17:33:39.869Z,3.30
2023-04-08T17:36:41.620Z,3.80
2023-04-08T17:39:44.180Z,3.33
2023-04-08T17:42:45.996Z,3.60
2023-04-08T17:45:53.829Z,4.30
2023-04-08T17:48:58.407Z,3.78
2023-04-08T17:52:00.599Z,4.10
2023-04-08T17:55:02.671Z,3.93
2023-04-08T17:58:04.578Z,3.55
2023-04-08T18:01:09.660Z,4.03
2023-04-08T18:04:12.821Z,4.03
2023-04-08T18:07:14.750Z,3.97
2023-04-08T18:10:17.421Z,3.53
2023-04-08T18:13:19.320Z,4.07
2023-04-08T18:16:24.648Z,4.43
2023-04-08T18:19:26.695Z,5.50
2023-04-08T18:22:32.058Z,3.50
2023-04-08T18:25:34.689Z,5.00
2023-04-08T18:28:36.531Z,5.72
2023-04-08T18:31:38.270Z,4.73
2023-04-08T18:34:40.385Z,5.32
2023-04-08T18:37:42.152Z,5.70
2023-04-08T18:40:45.870Z,4.85
2023-04-08T18:43:47.555Z,4.90
2023-04-08T18:46:49.280Z,3.83
2023-04-08T18:49:54.614Z,4.43
2023-04-08T18:52:56.508Z,3.85
2023-04-08T18:55:58.589Z,3.50
2023-04-08T18:59:00.315Z,3.60
2023-04-08T19:02:02.128Z,4.60
2023-04-08T19:05:04.270Z,3.77
2023-04-08T19:08:06.183Z,3.28
2023-04-08T19:11:07.902Z,4.07
2023-04-08T19:14:09.682Z,3.55
2023-04-08T19:17:14.558Z,3.33
2023-04-08T19:20:16.461Z,3.28
2023-04-08T19:23:19.016Z,3.58
2023-04-08T19:26:21.265Z,3.53
2023-04-08T19:29:23.541Z,3.13
2023-04-08T19:32:25.231Z,3.53
2023-04-08T19:35:30.390Z,3.40
2023-04-08T19:38:35.941Z,3.30
2023-04-08T19:41:37.596Z,3.38
2023-04-08T19:44:39.310Z,3.05
2023-04-08T19:47:45.104Z,3.50
2023-04-08T19:50:52.197Z,3.10
2023-04-08T19:53:54.431Z,3.53
2023-04-08T19:56:58.166Z,3.10
2023-04-08T20:00:00.200Z,3.20
2023-04-08T20:03:02.222Z,3.10
2023-04-08T20:06:08.154Z,4.13
2023-04-08T20:09:12.677Z,3.45
2023-04-08T20:12:14.388Z,3.38
2023-04-08T20:15:24.084Z,3.08
2023-04-08T20:18:30.188Z,3.90
2023-04-08T20:21:32.763Z,3.20
2023-04-08T20:24:34.574Z,3.53
2023-04-08T20:27:36.786Z,3.25
2023-04-08T20:30:38.819Z,3.60
2023-04-08T20:33:47.983Z,4.00
2023-04-08T20:36:49.711Z,3.55
2023-04-08T20:39:51.619Z,3.72
2023-04-08T20:42:53.434Z,3.72
2023-04-08T20:45:55.206Z,3.70
2023-04-08T20:49:01.104Z,3.42
2023-04-08T20:52:02.827Z,3.75
2023-04-08T20:55:06.382Z,3.53
2023-04-08T20:58:08.079Z,4.27
2023-04-08T21:01:09.872Z,3.70
2023-04-08T21:04:16.074Z,3.50
2023-04-08T21:07:18.289Z,4.20
2023-04-08T21:10:23.503Z,3.50
2023-04-08T21:13:25.241Z,3.40
2023-04-08T21:16:29.276Z,3.85
2023-04-08T21:19:34.639Z,4.13
2023-04-08T21:22:40.173Z,3.50
2023-04-08T21:25:41.970Z,3.90
2023-04-08T21:28:44.315Z,3.38
2023-04-08T21:31:46.381Z,3.85
2023-04-08T21:34:52.289Z,3.70
2023-04-08T21:37:57.794Z,3.53
2023-04-08T21:40:59.749Z,3.72
2023-04-08T21:44:01.530Z,4.30
2023-04-08T21:47:03.314Z,4.40
2023-04-08T21:50:09.953Z,3.13
2023-04-08T21:53:11.951Z,3.38
2023-04-08T21:56:18.242Z,3.20
2023-04-08T21:59:20.370Z,3.87
2023-04-08T22:02:22.520Z,3.35
2023-04-08T22:05:27.621Z,3.38
2023-04-08T22:08:30.676Z,3.90
2023-04-08T22:11:32.433Z,4.20
2023-04-08T22:14:34.150Z,3.45
2023-04-08T22:17:36.113Z,3.63
2023-04-08T22:20:37.783Z,3.55
2023-04-08T22:23:42.647Z,3.83
2023-04-08T22:26:44.594Z,3.65
2023-04-08T22:29:46.717Z,4.05
2023-04-08T22:32:48.462Z,4.35
2023-04-08T22:35:53.136Z,3.97
2023-04-08T22:38:54.797Z,4.28
2023-04-08T22:41:57.696Z,3.97
2023-04-08T22:44:59.800Z,3.63
2023-04-08T22:48:01.574Z,3.47
2023-04-08T22:51:03.489Z,4.38
2023-04-08T22:54:05.419Z,3.97
2023-04-08T22:57:07.161Z,4.15
2023-04-08T23:00:09.518Z,3.97
2023-04-08T23:03:11.505Z,4.03
2023-04-08T23:06:13.232Z,4.25
2023-04-08T23:09:18.523Z,4.15
2023-04-08T23:12:20.216Z,3.83
2023-04-08T23:15:21.926Z,3.55
2023-04-08T23:18:23.682Z,3.85
2023-04-08T23:21:29.764Z,4.28
2023-04-08T23:24:33.658Z,3.30
2023-04-08T23:27:35.351Z,4.05
2023-04-08T23:30:37.537Z,4.47
2023-04-08T23:33:39.427Z,5.18
2023-04-08T23:36:41.235Z,5.57
2023-04-08T23:39:42.945Z,4.57
2023-04-08T23:42:44.684Z,6.28
2023-04-08T23:45:46.377Z,6.28
2023-04-08T23:48:48.104Z,6.67
2023-04-08T23:51:54.334Z,7.07
2023-04-08T23:54:56.035Z,5.15
2023-04-08T23:57:57.796Z,6.18
